Time;durP1;ratioP1;P1;durP2;ratioP2;P2;SDS_P1;SDS_P2;PMS_P1;PMS_P2;Temp;Humidity;BMP_temperature;BMP_pressure;BME280_temperature;BME280_humidity;BME280_pressure;Samples;Min_cycle;Max_cycle;Signal;HPM_P1;HPM_P2
2022/05/20 00:00:11;;;;;;;3.97;1.00;;;20.30;61.30;;;;;;4995380;28;20120;-71
2022/05/20 00:02:38;;;;;;;6.25;0.90;;;20.30;61.30;;;;;;4978134;28;20086;-71
2022/05/20 00:05:04;;;;;;;4.03;1.05;;;20.30;61.40;;;;;;4976004;28;20505;-72
2022/05/20 00:07:29;;;;;;;4.53;0.90;;;20.30;61.50;;;;;;4974887;28;20484;-72
2022/05/20 00:09:55;;;;;;;2.78;0.80;;;20.30;61.50;;;;;;4974856;28;20054;-72
2022/05/20 00:12:21;;;;;;;4.47;1.30;;;20.30;61.60;;;;;;4976235;28;20027;-72
2022/05/20 00:14:46;;;;;;;5.53;1.00;;;20.30;61.60;;;;;;4974720;28;20077;-72
2022/05/20 00:17:12;;;;;;;7.20;1.10;;;20.30;61.60;;;;;;4975068;28;20030;-72
2022/05/20 00:19:38;;;;;;;4.32;1.20;;;20.30;61.60;;;;;;4974943;28;20586;-72
2022/05/20 00:22:06;;;;;;;1.63;0.90;;;20.30;61.60;;;;;;4975613;28;20025;-72
2022/05/20 00:24:32;;;;;;;2.75;0.80;;;20.30;61.60;;;;;;4974801;28;20102;-72
2022/05/20 00:26:58;;;;;;;5.38;1.00;;;20.30;61.60;;;;;;4958124;28;20023;-72
2022/05/20 00:29:24;;;;;;;2.33;1.25;;;20.30;61.60;;;;;;4975636;28;20081;-72
2022/05/20 00:31:49;;;;;;;5.82;1.20;;;20.30;61.70;;;;;;4971973;28;20019;-72
2022/05/20 00:34:15;;;;;;;3.95;1.23;;;20.30;61.70;;;;;;4994865;28;20485;-72
2022/05/20 00:36:41;;;;;;;1.90;0.80;;;20.30;61.80;;;;;;4995325;28;20377;-72
2022/05/20 00:39:06;;;;;;;3.60;0.70;;;20.30;61.80;;;;;;4995178;28;20101;-72
2022/05/20 00:41:33;;;;;;;4.05;1.08;;;20.30;61.80;;;;;;4993913;28;20022;-72
2022/05/20 00:43:58;;;;;;;3.30;1.27;;;20.30;61.90;;;;;;4993309;28;20453;-72
2022/05/20 00:46:25;;;;;;;1.27;0.80;;;20.30;61.90;;;;;;4993763;28;20066;-72
2022/05/20 00:49:08;;;;;;;3.38;1.20;;;20.30;62.00;;;;;;4994845;28;20409;-72
2022/05/20 00:51:46;;;;;;;1.77;0.80;;;20.30;61.90;;;;;;4993832;28;20018;-72
2022/05/20 00:54:20;;;;;;;2.30;0.73;;;20.30;61.90;;;;;;4961650;28;20507;-72
2022/05/20 00:56:56;;;;;;;3.95;0.90;;;20.30;62.00;;;;;;4977515;28;20025;-72
2022/05/20 00:59:24;;;;;;;6.10;0.90;;;20.30;62.00;;;;;;4993513;28;20038;-72
2022/05/20 01:01:50;;;;;;;2.92;1.10;;;20.30;62.10;;;;;;4983302;28;20436;-72
2022/05/20 01:04:16;;;;;;;2.75;0.90;;;20.30;62.20;;;;;;4958008;28;20038;-72
2022/05/20 01:06:42;;;;;;;4.57;1.33;;;20.30;62.20;;;;;;4973946;28;20030;-72
2022/05/20 01:09:08;;;;;;;5.05;1.00;;;20.30;62.20;;;;;;4975022;28;20109;-72
2022/05/20 01:11:34;;;;;;;2.58;0.82;;;20.30;62.30;;;;;;4974802;28;20019;-72
2022/05/20 01:14:00;;;;;;;2.72;0.70;;;20.30;62.30;;;;;;4973763;28;20162;-72
2022/05/20 01:16:26;;;;;;;5.18;0.90;;;20.30;62.30;;;;;;4973877;28;20486;-72
2022/05/20 01:18:53;;;;;;;6.22;1.15;;;20.30;62.30;;;;;;4973765;28;20030;-72
2022/05/20 01:21:19;;;;;;;2.40;0.68;;;20.30;62.30;;;;;;4973776;28;20022;-72
2022/05/20 01:23:45;;;;;;;4.70;1.00;;;20.30;62.30;;;;;;4973625;28;20014;-72
2022/05/20 01:26:11;;;;;;;2.30;0.77;;;20.30;62.30;;;;;;4973273;28;20033;-72
2022/05/20 01:28:36;;;;;;;3.97;1.00;;;20.30;62.30;;;;;;4974999;28;20041;-72
2022/05/20 01:31:05;;;;;;;3.90;0.93;;;20.30;62.50;;;;;;4973294;28;20022;-72
2022/05/20 01:33:44;;;;;;;2.13;0.88;;;20.30;62.60;;;;;;4954168;29;20024;-72
2022/05/20 01:36:18;;;;;;;3.53;0.82;;;20.30;62.60;;;;;;4939040;29;20610;-72
2022/05/20 01:38:44;;;;;;;2.35;0.90;;;20.30;62.70;;;;;;4953494;28;20023;-72
2022/05/20 01:41:21;;;;;;;2.88;0.95;;;20.30;62.60;;;;;;4953774;29;20023;-73
2022/05/20 01:44:02;;;;;;;3.13;1.10;;;20.30;62.60;;;;;;4955140;28;20390;-73
2022/05/20 01:46:50;;;;;;;3.35;1.00;;;20.30;62.60;;;;;;4955119;29;20490;-73
2022/05/20 01:49:43;;;;;;;6.32;1.23;;;20.30;62.60;;;;;;4954004;29;20020;-72
2022/05/20 01:52:30;;;;;;;1.55;0.82;;;20.30;62.60;;;;;;4955005;28;20078;-72
2022/05/20 01:54:59;;;;;;;6.45;1.23;;;20.30;62.80;;;;;;4939213;29;20026;-72
2022/05/20 01:57:36;;;;;;;2.45;1.00;;;20.30;62.60;;;;;;4955006;29;20027;-72
2022/05/20 02:00:21;;;;;;;4.28;1.08;;;20.30;62.60;;;;;;4954921;29;20019;-72
2022/05/20 02:03:11;;;;;;;3.00;0.88;;;20.30;62.60;;;;;;4947595;28;20057;-72
2022/05/20 02:05:45;;;;;;;5.95;1.02;;;20.30;62.70;;;;;;4970308;28;20047;-72
2022/05/20 02:08:17;;;;;;;3.97;0.95;;;20.30;62.80;;;;;;4972782;28;20074;-72
2022/05/20 02:10:55;;;;;;;5.90;0.90;;;20.30;62.90;;;;;;4972662;28;20027;-72
2022/05/20 02:13:21;;;;;;;6.18;1.00;;;20.30;62.80;;;;;;4972935;28;20115;-72
2022/05/20 02:15:51;;;;;;;24.30;2.00;;;20.30;62.90;;;;;;4972792;28;20507;-72
2022/05/20 02:18:21;;;;;;;8.77;1.08;;;20.30;62.90;;;;;;4972523;28;20080;-73
2022/05/20 02:20:48;;;;;;;4.40;1.20;;;20.30;62.90;;;;;;4972616;28;20497;-72
2022/05/20 02:23:42;;;;;;;4.60;1.10;;;20.30;62.90;;;;;;4972739;28;20038;-72
2022/05/20 02:26:12;;;;;;;3.97;1.23;;;20.30;62.80;;;;;;4971495;28;20134;-73
2022/05/20 02:29:09;;;;;;;4.43;0.90;;;20.30;62.90;;;;;;4957155;28;20027;-73
2022/05/20 02:31:39;;;;;;;2.25;0.93;;;20.30;62.90;;;;;;4958299;28;20097;-73
2022/05/20 02:34:05;;;;;;;2.97;1.27;;;20.30;63.00;;;;;;4956524;28;20031;-73
2022/05/20 02:36:34;;;;;;;5.22;1.10;;;20.30;63.00;;;;;;4972464;28;20030;-72
2022/05/20 02:39:01;;;;;;;2.83;1.33;;;20.30;63.00;;;;;;4972269;28;20018;-72
2022/05/20 02:41:27;;;;;;;3.28;0.90;;;20.30;63.00;;;;;;4972371;28;20050;-72
2022/05/20 02:43:52;;;;;;;2.95;0.98;;;20.30;63.10;;;;;;4972268;28;20054;-72
2022/05/20 02:46:18;;;;;;;3.50;1.10;;;20.30;63.10;;;;;;4972156;28;20478;-72
2022/05/20 02:48:44;;;;;;;2.72;0.80;;;20.30;63.10;;;;;;4973802;28;20026;-72
2022/05/20 02:51:09;;;;;;;7.15;1.73;;;20.30;63.10;;;;;;4978710;28;20014;-72
2022/05/20 02:53:35;;;;;;;4.32;0.95;;;20.30;63.20;;;;;;4979738;28;20031;-72
2022/05/20 02:56:03;;;;;;;4.63;0.95;;;20.30;63.20;;;;;;4979833;28;20023;-72
2022/05/20 03:04:09;;;;;;;4.63;1.33;;;20.30;63.30;;;;;;4979045;28;20040;-72
2022/05/20 03:06:36;;;;;;;3.53;0.93;;;20.30;63.30;;;;;;4978918;28;20023;-72
2022/05/20 03:09:03;;;;;;;2.80;0.93;;;20.30;63.20;;;;;;4978206;28;20080;-72
2022/05/20 03:11:28;;;;;;;2.72;0.85;;;20.30;63.30;;;;;;4979716;28;20023;-72
2022/05/20 03:13:54;;;;;;;4.60;1.20;;;20.30;63.30;;;;;;4979856;28;20033;-72
2022/05/20 03:16:19;;;;;;;2.25;0.95;;;20.30;63.30;;;;;;4979648;28;20027;-73
2022/05/20 03:18:45;;;;;;;8.18;1.10;;;20.30;63.50;;;;;;4978544;28;20031;-73
2022/05/20 03:21:11;;;;;;;4.25;1.15;;;20.30;63.40;;;;;;4979574;28;20069;-73
2022/05/20 03:23:36;;;;;;;2.92;0.90;;;20.30;63.40;;;;;;4979559;28;20515;-73
2022/05/20 03:26:04;;;;;;;4.05;1.05;;;20.30;63.40;;;;;;4978409;28;20027;-72
2022/05/20 03:28:29;;;;;;;10.68;1.20;;;20.30;63.50;;;;;;4979566;28;20030;-72
2022/05/20 03:30:55;;;;;;;2.67;1.00;;;20.30;63.50;;;;;;4962324;28;20481;-72
2022/05/20 03:33:21;;;;;;;7.72;1.13;;;20.30;63.50;;;;;;4979448;28;20077;-72
2022/05/20 03:35:48;;;;;;;5.63;0.82;;;20.30;63.40;;;;;;4979328;28;20568;-72
2022/05/20 03:38:14;;;;;;;3.58;1.02;;;20.30;63.50;;;;;;4979392;28;20035;-72
2022/05/20 03:40:39;;;;;;;3.42;1.23;;;20.30;63.50;;;;;;4979591;28;20030;-72
2022/05/20 03:43:05;;;;;;;6.10;1.00;;;20.30;63.50;;;;;;4979501;28;20034;-72
2022/05/20 03:45:31;;;;;;;7.38;1.55;;;20.30;63.50;;;;;;4978151;28;20050;-72
2022/05/20 03:47:56;;;;;;;4.50;1.10;;;20.30;63.60;;;;;;4979457;28;20035;-72
2022/05/20 03:50:22;;;;;;;2.80;1.10;;;20.30;63.60;;;;;;4977839;28;20485;-72
2022/05/20 03:52:48;;;;;;;3.85;1.20;;;20.30;63.60;;;;;;4979543;28;20027;-72
2022/05/20 03:55:14;;;;;;;3.80;1.40;;;20.30;63.60;;;;;;4978156;28;20027;-72
2022/05/20 03:57:39;;;;;;;3.03;0.82;;;20.30;63.60;;;;;;4979295;28;20054;-72
2022/05/20 04:00:06;;;;;;;3.05;0.88;;;20.30;63.60;;;;;;4978407;28;20023;-72
2022/05/20 04:02:31;;;;;;;5.25;1.08;;;20.30;63.60;;;;;;4974798;28;20493;-72
2022/05/20 04:04:57;;;;;;;2.65;0.80;;;20.30;63.60;;;;;;4974879;28;20066;-72
2022/05/20 04:07:25;;;;;;;5.93;0.90;;;20.30;63.70;;;;;;4974859;28;20069;-72
2022/05/20 04:09:51;;;;;;;4.55;1.10;;;20.30;63.70;;;;;;4975223;28;20047;-72
2022/05/20 04:12:43;;;;;;;4.47;1.00;;;20.30;63.80;;;;;;4974911;28;20516;-73
2022/05/20 04:15:11;;;;;;;2.03;0.88;;;20.30;63.70;;;;;;4970790;28;20037;-72
2022/05/20 04:17:36;;;;;;;4.13;0.90;;;20.30;63.80;;;;;;4974949;28;20035;-72
2022/05/20 04:20:03;;;;;;;5.88;1.15;;;20.30;63.80;;;;;;4975785;28;20401;-72
2022/05/20 04:22:35;;;;;;;2.70;1.02;;;20.30;63.90;;;;;;4974618;28;20066;-72
2022/05/20 04:25:01;;;;;;;1.70;1.02;;;20.30;63.90;;;;;;4959141;28;20030;-72
2022/05/20 04:27:27;;;;;;;2.58;0.88;;;20.30;63.90;;;;;;4958502;28;20034;-72
2022/05/20 04:29:54;;;;;;;6.85;1.08;;;20.30;64.00;;;;;;4974751;28;20029;-72
2022/05/20 04:32:19;;;;;;;3.65;1.08;;;20.30;64.00;;;;;;4975624;28;20109;-72
2022/05/20 04:34:45;;;;;;;3.20;0.98;;;20.30;64.00;;;;;;4958247;28;20500;-72
2022/05/20 04:37:11;;;;;;;3.13;1.00;;;20.30;64.00;;;;;;4974577;28;20041;-72
2022/05/20 04:39:37;;;;;;;2.95;0.95;;;20.30;64.10;;;;;;4974521;28;20054;-72
2022/05/20 04:47:31;;;;;;;3.90;1.27;;;20.30;64.20;;;;;;4974550;28;20037;-72
2022/05/20 04:49:57;;;;;;;5.63;1.02;;;20.30;64.20;;;;;;4974324;28;20023;-72
2022/05/20 04:52:23;;;;;;;4.65;1.02;;;20.30;64.20;;;;;;4974204;28;20034;-72
2022/05/20 04:54:51;;;;;;;3.22;1.00;;;20.30;64.30;;;;;;4974116;28;20019;-72
2022/05/20 04:57:21;;;;;;;2.85;0.90;;;20.30;64.20;;;;;;4975187;28;20113;-72
2022/05/20 04:59:47;;;;;;;4.03;0.88;;;20.30;64.30;;;;;;4974188;28;20034;-72
2022/05/20 05:02:13;;;;;;;2.53;0.80;;;20.30;64.30;;;;;;4974070;28;20031;-72
2022/05/20 05:04:38;;;;;;;4.15;1.42;;;20.30;64.30;;;;;;4973924;28;20023;-72
2022/05/20 05:07:09;;;;;;;4.10;1.25;;;20.30;64.30;;;;;;4973569;28;20038;-72
2022/05/20 05:09:34;;;;;;;2.05;0.88;;;20.30;64.30;;;;;;4973955;28;20018;-72
2022/05/20 05:12:00;;;;;;;5.00;0.90;;;20.30;64.50;;;;;;4957109;28;20402;-72
2022/05/20 05:14:25;;;;;;;2.88;1.00;;;20.30;64.40;;;;;;4973410;28;20026;-72
2022/05/20 05:16:51;;;;;;;4.43;1.38;;;20.30;64.60;;;;;;4975075;28;20034;-73
2022/05/20 05:19:17;;;;;;;3.33;0.90;;;20.30;65.60;;;;;;4973481;28;20031;-72
2022/05/20 05:21:42;;;;;;;7.38;1.13;;;20.30;64.80;;;;;;4974747;28;20035;-71
2022/05/20 05:24:09;;;;;;;5.03;1.02;;;20.30;64.70;;;;;;4973530;28;20026;-71
2022/05/20 05:26:35;;;;;;;4.65;1.40;;;20.30;64.90;;;;;;4973592;28;20026;-71
2022/05/20 05:29:02;;;;;;;5.70;1.05;;;20.30;64.80;;;;;;4973758;28;20523;-72
2022/05/20 05:31:27;;;;;;;4.22;1.00;;;20.30;64.90;;;;;;4974422;28;20029;-72
2022/05/20 05:33:53;;;;;;;4.13;1.70;;;20.30;64.90;;;;;;4973442;28;20023;-72
2022/05/20 05:36:19;;;;;;;3.38;1.00;;;20.30;64.80;;;;;;4986375;28;20083;-72
2022/05/20 05:38:46;;;;;;;4.50;1.10;;;20.30;64.90;;;;;;4976837;28;20453;-72
2022/05/20 05:41:12;;;;;;;4.03;0.90;;;20.30;64.90;;;;;;4966762;28;20046;-72
2022/05/20 05:43:37;;;;;;;2.35;1.00;;;20.30;64.90;;;;;;4970174;28;20027;-73
2022/05/20 05:46:04;;;;;;;4.85;0.93;;;20.30;64.90;;;;;;4970149;28;20129;-73
2022/05/20 05:48:30;;;;;;;7.70;0.85;;;20.30;65.00;;;;;;4969999;28;20057;-71
2022/05/20 05:50:55;;;;;;;6.55;1.05;;;20.30;65.00;;;;;;4970674;28;20047;-73
2022/05/20 05:53:22;;;;;;;3.25;1.23;;;20.30;65.00;;;;;;4971790;28;20027;-76
2022/05/20 05:55:53;;;;;;;5.07;1.50;;;20.30;63.70;;;;;;4970195;28;20011;-76
2022/05/20 05:58:18;;;;;;;7.88;1.70;;;20.30;63.20;;;;;;4954409;28;20077;-76
2022/05/20 06:00:44;;;;;;;5.50;1.52;;;20.20;62.70;;;;;;4971209;28;20034;-75
2022/05/20 06:03:10;;;;;;;3.50;1.00;;;20.10;62.20;;;;;;4970270;28;20090;-76
2022/05/20 06:05:35;;;;;;;3.58;1.60;;;20.10;62.10;;;;;;4970747;28;20061;-75
2022/05/20 06:08:01;;;;;;;14.23;2.17;;;20.00;61.80;;;;;;4969712;28;20030;-75
2022/05/20 06:10:27;;;;;;;5.90;1.33;;;20.00;61.50;;;;;;4969639;28;20419;-75
2022/05/20 06:12:55;;;;;;;7.40;1.40;;;20.00;61.50;;;;;;4967981;28;20015;-75
2022/05/20 06:15:22;;;;;;;5.68;1.48;;;20.00;61.20;;;;;;4970472;28;20030;-75
2022/05/20 06:17:49;;;;;;;9.65;2.08;;;20.00;61.20;;;;;;4969618;28;20085;-75
2022/05/20 06:20:15;;;;;;;5.38;1.23;;;19.90;60.90;;;;;;4969319;28;20027;-75
2022/05/20 06:22:41;;;;;;;11.05;2.13;;;19.90;60.70;;;;;;4969327;28;20034;-75
2022/05/20 06:25:07;;;;;;;8.00;1.90;;;19.90;60.70;;;;;;4968891;28;20142;-75
2022/05/20 06:27:33;;;;;;;8.70;1.60;;;19.80;60.90;;;;;;4968965;28;20030;-75
2022/05/20 06:29:59;;;;;;;7.13;1.42;;;19.80;60.70;;;;;;4969033;28;20026;-75
2022/05/20 06:32:24;;;;;;;6.95;1.70;;;19.80;60.40;;;;;;4970449;28;20516;-75
2022/05/20 06:40:19;;;;;;;12.00;1.92;;;19.70;60.50;;;;;;4969854;28;20133;-75
2022/05/20 06:42:44;;;;;;;8.77;1.75;;;19.60;60.20;;;;;;4969323;28;20034;-75
2022/05/20 06:45:11;;;;;;;6.82;1.80;;;19.70;60.40;;;;;;4968956;28;20059;-74
2022/05/20 06:47:37;;;;;;;11.48;2.13;;;19.60;60.20;;;;;;4955867;28;20378;-74
2022/05/20 06:50:05;;;;;;;10.75;2.20;;;19.70;60.20;;;;;;4971175;28;20528;-73
2022/05/20 06:52:31;;;;;;;12.25;2.33;;;19.60;60.10;;;;;;4970438;28;20019;-73
2022/05/20 06:54:56;;;;;;;13.85;2.33;;;19.60;59.90;;;;;;4971350;28;20026;-74
2022/05/20 06:57:22;;;;;;;6.97;1.77;;;19.50;59.80;;;;;;4971458;28;20038;-73
2022/05/20 06:59:48;;;;;;;12.23;1.85;;;19.50;60.00;;;;;;4970129;28;20082;-73
2022/05/20 07:02:13;;;;;;;13.73;2.60;;;19.50;59.90;;;;;;4971619;28;20031;-73
2022/05/20 07:04:39;;;;;;;8.55;2.03;;;19.50;60.00;;;;;;4971281;28;20030;-73
2022/05/20 07:07:06;;;;;;;10.95;1.95;;;19.50;59.80;;;;;;4972966;28;20078;-73
2022/05/20 07:09:32;;;;;;;10.85;2.33;;;19.40;59.70;;;;;;4971923;28;20031;-73
2022/05/20 07:11:58;;;;;;;10.15;2.33;;;19.40;59.60;;;;;;4972239;28;20030;-73
2022/05/20 07:14:23;;;;;;;10.65;1.67;;;19.40;59.70;;;;;;4973066;28;20477;-74
2022/05/20 07:16:49;;;;;;;10.63;1.92;;;19.40;59.70;;;;;;4973158;28;20102;-73
2022/05/20 07:19:15;;;;;;;11.27;2.20;;;19.40;59.80;;;;;;4972208;28;20089;-73
2022/05/20 07:21:40;;;;;;;11.82;2.20;;;19.40;60.00;;;;;;4972857;28;20027;-73
2022/05/20 07:24:07;;;;;;;9.48;1.80;;;19.40;60.00;;;;;;4972004;28;20034;-73
2022/05/20 07:26:32;;;;;;;6.22;1.67;;;19.40;60.10;;;;;;4955943;28;20035;-73
2022/05/20 07:28:58;;;;;;;10.60;1.85;;;19.40;60.20;;;;;;4973042;28;20453;-73
2022/05/20 07:31:24;;;;;;;9.60;1.50;;;19.40;60.10;;;;;;4955845;28;20025;-73
2022/05/20 07:33:53;;;;;;;7.00;1.48;;;19.40;60.10;;;;;;4973003;28;20374;-73
2022/05/20 07:36:19;;;;;;;10.15;1.92;;;19.30;60.10;;;;;;4973423;28;20014;-73
2022/05/20 07:38:44;;;;;;;7.55;1.83;;;19.30;60.20;;;;;;4975503;28;20111;-73
2022/05/20 07:41:12;;;;;;;7.72;1.58;;;19.30;60.10;;;;;;4976837;28;20031;-73
2022/05/20 07:43:38;;;;;;;13.55;2.17;;;19.30;60.20;;;;;;4974828;28;20125;-74
2022/05/20 07:46:03;;;;;;;10.77;1.92;;;19.30;60.40;;;;;;4975224;28;20129;-73
2022/05/20 07:48:29;;;;;;;9.77;1.98;;;19.20;60.30;;;;;;4975053;28;20505;-73
2022/05/20 07:51:03;;;;;;;9.32;2.20;;;19.20;60.60;;;;;;4975408;28;20022;-73
2022/05/20 07:53:35;;;;;;;8.48;1.92;;;19.20;60.60;;;;;;4975067;28;20103;-73
2022/05/20 07:56:13;;;;;;;11.57;1.98;;;19.20;60.40;;;;;;4975106;28;20027;-73
2022/05/20 07:58:50;;;;;;;9.32;1.83;;;19.10;60.40;;;;;;4974791;28;20035;-73
2022/05/20 08:01:17;;;;;;;9.25;1.73;;;19.10;60.40;;;;;;4975255;28;20030;-73
2022/05/20 08:06:27;;;;;;;9.18;1.40;;;19.00;60.40;;;;;;4974913;28;20078;-73
2022/05/20 08:08:54;;;;;;;8.88;1.92;;;19.00;60.30;;;;;;4974673;28;20026;-73
2022/05/20 08:11:19;;;;;;;8.80;1.60;;;19.00;60.30;;;;;;4975694;28;20102;-73
2022/05/20 08:13:45;;;;;;;7.10;1.60;;;19.00;60.20;;;;;;4975702;28;20101;-73
2022/05/20 08:16:10;;;;;;;9.82;1.60;;;19.00;60.10;;;;;;4974804;28;20208;-73
2022/05/20 08:18:36;;;;;;;7.15;1.33;;;19.00;59.90;;;;;;4975845;28;20038;-73
2022/05/20 08:21:02;;;;;;;7.75;1.42;;;18.90;59.60;;;;;;4975629;28;20035;-73
2022/05/20 08:23:27;;;;;;;7.75;1.88;;;18.90;59.70;;;;;;4975567;28;20034;-73
2022/05/20 08:25:53;;;;;;;7.65;2.22;;;18.90;59.90;;;;;;4957873;28;20138;-74
2022/05/20 08:28:19;;;;;;;5.45;1.13;;;18.90;59.90;;;;;;4974270;28;20398;-73
2022/05/20 08:30:44;;;;;;;5.78;1.13;;;18.90;59.90;;;;;;4974334;28;20026;-73
2022/05/20 08:33:10;;;;;;;6.72;1.70;;;18.90;60.00;;;;;;4974184;28;20031;-73
2022/05/20 08:35:36;;;;;;;8.07;1.85;;;18.90;60.00;;;;;;4958225;28;20499;-73
2022/05/20 08:38:03;;;;;;;7.63;1.52;;;18.90;60.10;;;;;;4980433;28;20030;-73
2022/05/20 08:40:34;;;;;;;6.05;1.35;;;18.90;60.00;;;;;;4977300;28;20489;-73
2022/05/20 08:43:01;;;;;;;4.30;1.20;;;18.90;60.10;;;;;;4978127;28;20101;-73
2022/05/20 08:45:28;;;;;;;5.57;1.50;;;18.90;60.10;;;;;;4977336;28;20093;-73
2022/05/20 08:47:53;;;;;;;9.95;1.90;;;18.90;60.00;;;;;;4994262;28;20030;-73
2022/05/20 08:50:44;;;;;;;8.63;1.48;;;18.90;60.00;;;;;;4993612;28;20077;-73
2022/05/20 08:53:35;;;;;;;5.68;1.70;;;18.90;59.90;;;;;;4993363;28;20104;-73
2022/05/20 08:56:05;;;;;;;5.55;1.23;;;18.90;60.00;;;;;;4979197;28;20029;-73
2022/05/20 08:58:31;;;;;;;6.50;1.25;;;18.90;60.10;;;;;;4977767;28;20026;-73
2022/05/20 09:00:56;;;;;;;5.50;1.50;;;18.90;60.00;;;;;;4977137;28;20049;-73
2022/05/20 09:03:22;;;;;;;5.82;1.05;;;18.80;59.70;;;;;;4994497;28;20034;-73
2022/05/20 09:05:48;;;;;;;7.03;1.80;;;18.80;59.90;;;;;;4977084;28;20022;-74
2022/05/20 09:08:25;;;;;;;8.38;1.52;;;18.80;59.90;;;;;;4984728;28;20035;-73
2022/05/20 09:10:51;;;;;;;10.18;1.50;;;18.80;59.80;;;;;;4973545;28;20102;-73
2022/05/20 09:15:43;;;;;;;8.55;1.42;;;18.80;59.90;;;;;;4974797;28;20476;-73
2022/05/20 09:16:13;;;;;;;4.57;1.20;;;18.80;59.90;;;;;;4973716;28;20054;-73
2022/05/20 09:18:43;;;;;;;5.80;1.52;;;18.90;60.10;;;;;;4973479;28;20034;-73
2022/05/20 09:21:32;;;;;;;5.43;1.50;;;18.90;60.10;;;;;;4973491;28;20046;-73
2022/05/20 09:24:01;;;;;;;5.57;1.50;;;18.90;60.20;;;;;;4958460;28;20031;-73
2022/05/20 09:26:37;;;;;;;7.20;1.27;;;18.90;60.20;;;;;;4957407;28;20041;-73
2022/05/20 09:29:11;;;;;;;6.07;1.20;;;18.90;60.20;;;;;;4973397;28;20168;-73
2022/05/20 09:31:51;;;;;;;5.53;1.20;;;18.90;60.10;;;;;;4941272;28;20378;-73
2022/05/20 09:34:27;;;;;;;5.80;1.48;;;18.90;60.20;;;;;;4973194;28;20488;-73
2022/05/20 09:37:05;;;;;;;6.35;1.52;;;18.90;60.20;;;;;;4973113;28;20042;-73
2022/05/20 09:39:31;;;;;;;5.70;1.48;;;18.90;60.20;;;;;;4957817;28;20385;-73
2022/05/20 09:41:58;;;;;;;4.88;1.27;;;18.90;60.20;;;;;;4974298;28;20037;-73
2022/05/20 09:44:25;;;;;;;8.10;1.80;;;18.90;60.30;;;;;;4972847;28;20054;-73
2022/05/20 09:47:23;;;;;;;5.22;1.30;;;18.90;60.30;;;;;;4972725;28;20501;-73
2022/05/20 09:50:05;;;;;;;5.30;1.40;;;18.90;60.30;;;;;;4972990;28;20085;-73
2022/05/20 09:52:40;;;;;;;8.88;1.60;;;18.90;60.20;;;;;;4972818;28;20023;-73
2022/05/20 09:55:24;;;;;;;5.68;1.30;;;18.90;60.20;;;;;;4973953;28;20038;-73
2022/05/20 09:57:49;;;;;;;3.72;0.82;;;18.90;60.20;;;;;;4972646;28;20019;-73
2022/05/20 10:00:25;;;;;;;4.13;1.45;;;18.90;60.30;;;;;;4973506;28;20085;-73
2022/05/20 10:03:09;;;;;;;4.20;0.90;;;18.90;60.20;;;;;;4972657;28;20034;-73
2022/05/20 10:05:56;;;;;;;4.50;1.05;;;18.90;60.10;;;;;;4972541;28;20050;-73
2022/05/20 10:08:27;;;;;;;5.30;1.13;;;18.90;60.10;;;;;;4972385;28;20393;-73
2022/05/20 10:11:12;;;;;;;4.72;1.48;;;18.90;61.20;;;;;;4972487;28;20027;-73
2022/05/20 10:13:46;;;;;;;8.57;1.40;;;18.90;60.20;;;;;;4972496;28;20019;-73
2022/05/20 10:16:31;;;;;;;5.63;1.20;;;18.90;60.00;;;;;;4973597;28;20081;-73
2022/05/20 10:19:18;;;;;;;4.63;1.25;;;18.90;60.20;;;;;;4973513;28;20045;-73
2022/05/20 10:21:58;;;;;;;6.32;1.48;;;18.90;60.20;;;;;;4972139;28;20026;-73
2022/05/20 10:24:48;;;;;;;5.60;1.23;;;18.90;60.20;;;;;;4972296;28;20498;-73
2022/05/20 10:27:38;;;;;;;6.07;1.17;;;18.90;60.20;;;;;;4973461;28;20027;-73
2022/05/20 10:33:02;;;;;;;3.60;0.98;;;18.90;60.20;;;;;;4960160;28;20034;-73
2022/05/20 10:36:07;;;;;;;4.13;0.93;;;18.90;60.10;;;;;;4956325;28;20019;-73
2022/05/20 10:39:14;;;;;;;4.70;1.30;;;18.90;60.00;;;;;;4973403;28;20023;-73
2022/05/20 10:41:57;;;;;;;5.88;0.95;;;18.90;59.20;;;;;;4971216;28;20046;-73
2022/05/20 10:51:05;;;;;;;5.28;1.20;;;18.80;58.90;;;;;;4957467;28;20079;-73
2022/05/20 10:53:52;;;;;;;5.72;1.30;;;18.80;58.90;;;;;;4955100;28;20046;-73
2022/05/20 10:56:26;;;;;;;6.22;1.45;;;18.80;58.80;;;;;;4971260;28;20038;-73
2022/05/20 10:59:01;;;;;;;4.07;0.93;;;18.80;58.50;;;;;;4970898;28;20042;-73
2022/05/20 11:01:32;;;;;;;3.75;0.90;;;18.80;58.60;;;;;;4954966;28;20059;-73
2022/05/20 11:04:31;;;;;;;2.38;0.80;;;18.80;58.50;;;;;;4971020;28;20031;-73
2022/05/20 11:07:12;;;;;;;5.20;1.17;;;18.80;58.70;;;;;;4954686;28;20023;-73
2022/05/20 11:09:38;;;;;;;3.30;0.70;;;18.90;58.70;;;;;;4955790;28;20081;-73
2022/05/20 11:12:04;;;;;;;4.78;1.20;;;18.90;58.60;;;;;;4975012;28;20449;-74
2022/05/20 11:15:01;;;;;;;4.38;1.40;;;18.80;58.70;;;;;;4958922;28;20027;-73
2022/05/20 11:17:39;;;;;;;4.68;1.40;;;18.90;58.70;;;;;;4959153;28;20058;-73
2022/05/20 11:20:08;;;;;;;2.22;0.98;;;18.80;58.40;;;;;;4976633;28;20030;-73
2022/05/20 11:23:03;;;;;;;3.17;1.00;;;18.90;58.50;;;;;;4976819;28;20515;-73
2022/05/20 11:25:48;;;;;;;7.10;1.45;;;18.90;58.50;;;;;;4976835;28;20596;-73
2022/05/20 11:28:19;;;;;;;3.55;1.13;;;18.90;58.20;;;;;;4975501;28;20055;-73
2022/05/20 11:31:07;;;;;;;2.05;0.88;;;18.90;58.00;;;;;;4976761;28;20081;-73
2022/05/20 11:34:12;;;;;;;3.47;0.80;;;18.90;58.20;;;;;;4977094;28;20030;-73
2022/05/20 11:36:44;;;;;;;3.65;1.25;;;18.90;58.00;;;;;;4976528;28;20023;-73
2022/05/20 11:39:47;;;;;;;3.65;1.20;;;18.90;58.10;;;;;;4975546;28;20031;-73
2022/05/20 11:42:38;;;;;;;5.82;1.38;;;18.90;58.30;;;;;;4957312;28;20031;-73
2022/05/20 11:45:28;;;;;;;3.35;0.88;;;18.90;58.00;;;;;;4971825;28;20043;-73
2022/05/20 11:47:56;;;;;;;3.28;1.00;;;18.90;57.90;;;;;;4969700;28;20033;-73
2022/05/20 11:50:27;;;;;;;4.50;1.00;;;18.90;57.90;;;;;;4957001;29;20055;-73
2022/05/20 11:53:04;;;;;;;3.45;1.38;;;18.90;57.80;;;;;;4972074;28;20122;-73
2022/05/20 11:56:02;;;;;;;4.32;1.60;;;18.90;57.90;;;;;;4957033;29;20019;-73
2022/05/20 11:58:31;;;;;;;3.88;0.93;;;18.90;57.70;;;;;;4971710;28;20527;-73
2022/05/20 12:00:57;;;;;;;3.85;1.00;;;18.90;57.80;;;;;;4956757;29;20027;-73
2022/05/20 12:03:28;;;;;;;2.72;0.95;;;19.00;57.70;;;;;;4971793;28;20038;-73
2022/05/20 12:05:54;;;;;;;4.20;1.20;;;19.00;57.60;;;;;;4971773;28;20062;-73
2022/05/20 12:08:39;;;;;;;5.05;1.50;;;19.00;57.60;;;;;;4971606;28;20058;-73
2022/05/20 12:11:26;;;;;;;5.13;1.50;;;19.00;57.60;;;;;;4968712;28;20077;-73
2022/05/20 12:13:58;;;;;;;4.70;1.52;;;19.00;57.70;;;;;;4974921;28;20019;-73
2022/05/20 12:16:23;;;;;;;4.30;1.15;;;19.00;57.60;;;;;;4975983;28;20018;-73
2022/05/20 12:24:33;;;;;;;4.72;1.17;;;19.00;57.10;;;;;;4975956;28;20037;-73
2022/05/20 12:26:59;;;;;;;2.42;0.90;;;19.00;57.10;;;;;;4959181;28;20026;-73
2022/05/20 12:29:37;;;;;;;3.83;1.40;;;19.00;56.90;;;;;;4958692;28;20027;-73
2022/05/20 12:32:15;;;;;;;4.88;1.00;;;19.10;57.20;;;;;;4975512;28;20022;-73
2022/05/20 12:34:41;;;;;;;7.82;1.20;;;19.10;57.30;;;;;;4975815;28;20490;-73
2022/05/20 12:37:07;;;;;;;6.65;1.35;;;19.10;57.30;;;;;;4958385;28;20517;-74
2022/05/20 12:39:49;;;;;;;2.30;0.90;;;19.10;57.40;;;;;;4974621;28;20077;-73
2022/05/20 12:42:39;;;;;;;3.80;1.00;;;19.10;57.60;;;;;;4993537;28;20018;-73
2022/05/20 12:45:05;;;;;;;4.40;1.10;;;19.10;57.60;;;;;;4990734;28;20058;-73
2022/05/20 12:47:34;;;;;;;5.00;1.35;;;19.10;57.80;;;;;;4993488;28;20026;-74
2022/05/20 12:50:15;;;;;;;7.07;1.50;;;19.10;57.90;;;;;;4993723;28;20023;-74
2022/05/20 12:52:49;;;;;;;4.55;1.20;;;19.20;58.00;;;;;;4994893;28;20426;-73
2022/05/20 12:55:22;;;;;;;5.13;1.50;;;19.20;58.10;;;;;;4993722;28;20047;-73
2022/05/20 12:57:52;;;;;;;;;;;19.20;58.10;;;;;;4993899;28;20077;-73
2022/05/20 13:00:23;;;;;;;6.13;1.25;;;19.20;58.20;;;;;;4993460;28;19997;-73
2022/05/20 13:02:53;;;;;;;4.45;1.25;;;19.20;58.30;;;;;;4993472;28;20069;-74
2022/05/20 13:05:21;;;;;;;3.90;1.10;;;19.20;58.30;;;;;;4994630;28;20089;-73
2022/05/20 13:07:47;;;;;;;3.83;1.13;;;19.20;58.40;;;;;;4994424;28;20092;-73
2022/05/20 13:10:34;;;;;;;4.70;1.23;;;19.30;58.30;;;;;;4993428;28;20480;-73
2022/05/20 13:13:24;;;;;;;5.65;1.20;;;19.30;58.40;;;;;;4977139;28;20038;-73
2022/05/20 13:15:51;;;;;;;6.90;1.67;;;19.30;58.40;;;;;;4968745;28;20058;-73
2022/05/20 13:18:25;;;;;;;3.25;1.08;;;19.30;58.30;;;;;;4973924;28;20031;-73
2022/05/20 13:20:53;;;;;;;2.58;0.90;;;19.30;58.30;;;;;;4974950;28;20552;-73
2022/05/20 13:23:33;;;;;;;3.60;1.15;;;19.30;58.20;;;;;;4957681;28;20023;-73
2022/05/20 13:25:59;;;;;;;4.60;1.02;;;19.40;58.10;;;;;;4957617;28;20038;-74
2022/05/20 13:28:42;;;;;;;5.45;1.45;;;19.40;57.90;;;;;;4957499;28;20031;-73
2022/05/20 13:31:13;;;;;;;5.07;1.15;;;19.40;58.00;;;;;;4957147;28;20023;-74
2022/05/20 13:33:41;;;;;;;9.20;1.98;;;19.40;57.90;;;;;;4972492;28;20404;-73
2022/05/20 13:36:08;;;;;;;6.28;1.95;;;19.40;57.80;;;;;;4973241;28;20452;-74
2022/05/20 13:38:40;;;;;;;5.85;1.10;;;19.50;57.80;;;;;;4957724;28;20018;-73